Time;durP1;ratioP1;P1;durP2;ratioP2;P2;SDS_P1;SDS_P2;PMS_P1;PMS_P2;Temp;Humidity;BMP_temperature;BMP_pressure;BME280_temperature;BME280_humidity;BME280_pressure;Samples;Min_cycle;Max_cycle;Signal;HPM_P1;HPM_P2
2022/06/11 00:00:16;;;;;;;7.88;6.05;;;;;;;13.35;100.00;99010.41;2596968;28;20045;-81
2022/06/11 00:01:57;;;;;;;6.70;5.78;;;;;;;13.32;100.00;99001.75;2596018;28;20056;-79
2022/06/11 00:03:13;;;;;;;7.38;5.97;;;;;;;13.33;100.00;99003.47;2596477;28;20060;-80
2022/06/11 00:04:38;;;;;;;7.38;5.82;;;;;;;13.32;100.00;99002.63;2596513;28;20065;-80
2022/06/11 00:05:54;;;;;;;6.20;5.60;;;;;;;13.20;100.00;99001.22;2596551;28;20053;-81
2022/06/11 00:07:17;;;;;;;7.75;5.88;;;;;;;13.07;100.00;99000.72;2596654;28;20045;-80
2022/06/11 00:08:33;;;;;;;7.13;6.07;;;;;;;13.03;100.00;98995.59;2596665;28;20045;-80
2022/06/11 00:09:50;;;;;;;6.35;5.72;;;;;;;12.98;100.00;98995.72;2595994;28;20049;-79
2022/06/11 00:11:07;;;;;;;7.57;6.18;;;;;;;13.02;100.00;98993.84;2596442;28;20636;-80
2022/06/11 00:12:24;;;;;;;7.88;7.00;;;;;;;13.00;100.00;98991.28;2596719;28;20048;-80
2022/06/11 00:13:41;;;;;;;10.15;8.00;;;;;;;13.04;100.00;98992.91;2596489;28;20420;-80
2022/06/11 00:14:57;;;;;;;11.35;8.18;;;;;;;13.11;100.00;98994.44;2596574;28;20130;-79
2022/06/11 00:16:17;;;;;;;8.98;8.07;;;;;;;13.13;100.00;99003.19;2596507;28;20053;-80
2022/06/11 00:17:33;;;;;;;9.60;8.20;;;;;;;13.10;100.00;99002.41;2596563;28;20053;-80
2022/06/11 00:18:49;;;;;;;10.02;6.65;;;;;;;13.04;100.00;99003.44;2596332;28;20057;-81
2022/06/11 00:20:05;;;;;;;9.27;7.35;;;;;;;12.99;100.00;99002.69;2596383;28;20053;-80
2022/06/11 00:21:23;;;;;;;10.23;7.45;;;;;;;12.95;100.00;99001.06;2596439;28;20489;-80
2022/06/11 00:22:39;;;;;;;7.80;7.00;;;;;;;12.85;100.00;99001.34;2596559;28;20106;-79
2022/06/11 00:23:54;;;;;;;9.25;7.75;;;;;;;12.79;100.00;98993.63;2596420;28;20053;-79
2022/06/11 00:25:10;;;;;;;8.82;7.93;;;;;;;12.77;100.00;98991.94;2596536;28;20628;-79
2022/06/11 00:26:26;;;;;;;8.13;7.32;;;;;;;12.70;100.00;99000.00;2596482;28;20049;-80
2022/06/11 00:27:42;;;;;;;10.80;7.63;;;;;;;12.67;100.00;98997.47;2596254;28;20041;-80
2022/06/11 00:28:57;;;;;;;9.38;7.30;;;;;;;12.68;100.00;98990.41;2596319;28;20045;-79
2022/06/11 00:30:15;;;;;;;8.40;7.28;;;;;;;12.69;100.00;98994.78;2596492;28;20049;-79
2022/06/11 00:31:31;;;;;;;7.45;6.65;;;;;;;12.69;100.00;98990.41;2596139;28;20049;-80
2022/06/11 00:32:48;;;;;;;10.57;7.13;;;;;;;12.63;100.00;98995.81;2596335;28;20052;-81
2022/06/11 00:34:03;;;;;;;8.07;6.50;;;;;;;12.51;100.00;98989.13;2596036;28;20051;-80
2022/06/11 00:35:19;;;;;;;7.50;6.70;;;;;;;12.47;100.00;98992.75;2596648;28;20049;-80
2022/06/11 00:36:36;;;;;;;8.20;5.75;;;;;;;12.42;100.00;98995.50;2596338;28;20091;-79
2022/06/11 00:37:52;;;;;;;7.00;6.30;;;;;;;12.41;100.00;98991.16;2596196;28;20049;-81
2022/06/11 00:39:08;;;;;;;8.45;6.45;;;;;;;12.32;100.00;98988.75;2596449;28;20057;-82
2022/06/11 00:40:31;;;;;;;6.07;5.57;;;;;;;12.27;100.00;98983.63;2596253;28;20053;-80
2022/06/11 00:41:51;;;;;;;7.20;6.40;;;;;;;12.32;100.00;98982.66;2596266;28;20140;-81
2022/06/11 00:43:08;;;;;;;6.93;6.13;;;;;;;12.29;100.00;98986.22;2596500;28;20053;-80
2022/06/11 00:44:24;;;;;;;8.05;6.28;;;;;;;12.30;100.00;98980.06;2596522;28;20049;-81
2022/06/11 00:45:46;;;;;;;9.02;6.80;;;;;;;12.29;100.00;98981.84;2596331;28;20554;-80
2022/06/11 00:47:07;;;;;;;6.57;5.95;;;;;;;12.31;100.00;98975.69;2596130;28;20045;-80
2022/06/11 00:48:33;;;;;;;7.68;6.22;;;;;;;12.25;100.00;98972.31;2596346;28;20444;-80
2022/06/11 00:49:56;;;;;;;7.25;6.25;;;;;;;12.18;100.00;98980.38;2596061;28;20057;-80
2022/06/11 00:51:18;;;;;;;8.38;6.32;;;;;;;11.99;100.00;98979.03;2596135;28;20061;-80
2022/06/11 00:52:37;;;;;;;6.85;5.75;;;;;;;11.98;100.00;98972.06;2596278;28;20140;-79
2022/06/11 00:54:00;;;;;;;8.18;5.93;;;;;;;11.90;100.00;98976.66;2596178;28;20128;-83
2022/06/11 00:55:18;;;;;;;;;;;;;;;11.96;100.00;98971.25;2596411;28;20111;-80
2022/06/11 00:56:41;;;;;;;7.72;6.03;;;;;;;11.96;100.00;98979.13;2596276;28;20372;-80
2022/06/11 00:58:02;;;;;;;7.07;5.95;;;;;;;11.97;100.00;98983.47;2594729;28;20492;-82
2022/06/11 00:59:25;;;;;;;7.78;6.70;;;;;;;11.89;100.00;98976.69;2595695;28;20403;-82
2022/06/11 01:00:49;;;;;;;7.93;7.13;;;;;;;11.81;100.00;98975.13;2596212;28;20492;-79
2022/06/11 01:02:06;;;;;;;8.13;7.28;;;;;;;11.64;100.00;98974.66;2595733;28;20322;-81
2022/06/11 01:03:27;;;;;;;8.82;7.10;;;;;;;11.70;100.00;98975.38;2596204;28;20480;-81
2022/06/11 01:04:50;;;;;;;11.27;8.02;;;;;;;11.72;100.00;98983.22;2596338;28;20053;-85
2022/06/11 01:06:35;;;;;;;8.73;7.05;;;;;;;11.75;100.00;98977.06;2595920;28;20037;-79
2022/06/11 01:08:09;;;;;;;7.82;7.03;;;;;;;11.73;100.00;98977.06;2596116;28;20053;-80
2022/06/11 01:09:39;;;;;;;7.50;6.70;;;;;;;11.74;100.00;98978.81;2596095;28;20049;-80
2022/06/11 01:11:02;;;;;;;10.40;6.80;;;;;;;11.77;100.00;98983.13;2595877;28;20067;-80
2022/06/11 01:12:26;;;;;;;8.32;6.63;;;;;;;11.75;100.00;98979.69;2595910;28;20053;-81
2022/06/11 01:13:53;;;;;;;8.00;7.10;;;;;;;11.71;100.00;98979.72;2596037;28;20504;-80
2022/06/11 01:15:22;;;;;;;7.50;6.70;;;;;;;11.72;100.00;98981.44;2596113;28;20539;-80
2022/06/11 01:17:05;;;;;;;8.70;6.70;;;;;;;11.72;100.00;98977.97;2595966;28;20052;-80
2022/06/11 01:18:39;;;;;;;9.02;6.65;;;;;;;11.71;100.00;98982.34;2595729;28;20094;-80
2022/06/11 01:20:07;;;;;;;8.77;6.65;;;;;;;11.67;100.00;98975.47;2596019;28;20084;-80
2022/06/11 01:21:29;;;;;;;7.68;6.28;;;;;;;11.68;100.00;98977.19;2595892;28;20571;-80
2022/06/11 01:23:14;;;;;;;9.77;6.72;;;;;;;11.58;100.00;98970.41;2596003;28;20046;-80
2022/06/11 01:24:50;;;;;;;8.25;7.03;;;;;;;11.57;100.00;98966.94;2596114;28;20107;-79
2022/06/11 01:26:31;;;;;;;8.60;7.15;;;;;;;11.55;100.00;98967.88;2595992;28;20453;-80
2022/06/11 01:28:01;;;;;;;9.85;6.35;;;;;;;11.56;100.00;98967.84;2591295;28;20057;-81
2022/06/11 01:29:34;;;;;;;7.68;6.35;;;;;;;11.57;100.00;98974.81;2593826;28;20068;-81
2022/06/11 01:30:57;;;;;;;8.07;7.20;;;;;;;11.59;100.00;98967.78;2595928;28;20492;-79
2022/06/11 01:32:40;;;;;;;8.30;6.68;;;;;;;11.59;100.00;98969.53;2596082;28;20049;-80
2022/06/11 01:34:28;;;;;;;8.65;6.57;;;;;;;11.54;100.00;98974.91;2592464;28;20137;-80
2022/06/11 01:36:03;;;;;;;7.03;6.05;;;;;;;11.56;100.00;98967.84;2595806;28;20104;-81
2022/06/11 01:37:26;;;;;;;8.00;6.53;;;;;;;11.57;100.00;98969.56;2595758;28;20092;-79
2022/06/11 01:38:45;;;;;;;8.75;6.10;;;;;;;11.52;100.00;98970.56;2595588;28;20539;-79
2022/06/11 01:40:05;;;;;;;9.50;6.70;;;;;;;11.49;100.00;98979.38;2595656;28;20064;-80
2022/06/11 01:41:36;;;;;;;7.43;6.60;;;;;;;11.48;100.00;98980.28;2595180;28;20136;-79
2022/06/11 01:42:57;;;;;;;6.53;5.93;;;;;;;11.44;100.00;98976.84;2595753;28;20064;-80
2022/06/11 01:44:20;;;;;;;9.13;6.35;;;;;;;11.41;100.00;98971.69;2595838;28;20049;-79
2022/06/11 01:45:37;;;;;;;8.25;5.80;;;;;;;11.38;100.00;98982.25;2595733;28;20095;-80
2022/06/11 01:46:55;;;;;;;7.03;6.20;;;;;;;11.35;100.00;98973.56;2595572;28;20140;-80
2022/06/11 01:48:17;;;;;;;7.63;6.63;;;;;;;11.31;100.00;98972.78;2595938;28;20151;-79
2022/06/11 01:49:38;;;;;;;7.30;6.55;;;;;;;11.27;100.00;98968.50;2596090;28;20653;-80
2022/06/11 01:51:29;;;;;;;8.88;6.85;;;;;;;11.28;100.00;98971.09;2595909;28;20041;-81
2022/06/11 01:53:14;;;;;;;7.30;6.07;;;;;;;11.22;100.00;98963.38;2595970;28;20546;-78
2022/06/11 01:55:14;;;;;;;7.20;6.43;;;;;;;11.15;100.00;98973.13;2596055;28;20058;-80
2022/06/11 01:56:57;;;;;;;7.80;7.00;;;;;;;11.16;100.00;98976.63;2594161;28;20626;-80
2022/06/11 01:58:29;;;;;;;8.38;7.47;;;;;;;11.02;100.00;98971.66;2594919;28;20064;-80
2022/06/11 02:00:03;;;;;;;8.70;7.15;;;;;;;10.98;100.00;98977.88;2595923;28;20468;-81
2022/06/11 02:01:24;;;;;;;9.90;8.32;;;;;;;10.98;100.00;98976.13;2595533;28;20132;-79
2022/06/11 02:02:54;;;;;;;9.82;7.90;;;;;;;11.04;100.00;98976.88;2595995;28;20056;-80
2022/06/11 02:04:19;;;;;;;10.45;7.30;;;;;;;11.08;100.00;98974.16;2595553;28;20148;-79
2022/06/11 02:05:35;;;;;;;8.65;7.10;;;;;;;11.09;100.00;98978.50;2595536;28;20057;-84
2022/06/11 02:06:58;;;;;;;8.10;7.05;;;;;;;11.12;100.00;98985.44;2596858;28;20045;-79
2022/06/11 02:08:50;;;;;;;7.63;6.78;;;;;;;11.13;100.00;98982.78;2596133;28;20056;-79
2022/06/11 02:10:29;;;;;;;8.00;7.07;;;;;;;11.16;100.00;98981.88;2595960;28;20135;-79
2022/06/11 02:11:48;;;;;;;8.23;6.93;;;;;;;11.17;100.00;98975.72;2595699;28;20397;-81
2022/06/11 02:13:06;;;;;;;8.77;6.88;;;;;;;11.15;100.00;98980.97;2595432;28;20060;-80
2022/06/11 02:14:45;;;;;;;8.07;7.15;;;;;;;11.15;100.00;98980.97;2595939;28;20053;-83
2022/06/11 02:16:19;;;;;;;7.38;6.65;;;;;;;11.11;100.00;98978.50;2590036;28;20068;-80
2022/06/11 02:17:39;;;;;;;7.63;6.75;;;;;;;11.08;100.00;98979.41;2595611;28;20135;-80
2022/06/11 02:18:57;;;;;;;9.02;8.13;;;;;;;11.06;100.00;98980.31;2595524;28;20407;-79
2022/06/11 02:20:35;;;;;;;9.90;7.60;;;;;;;11.03;100.00;98983.88;2595763;28;20057;-80
2022/06/11 02:21:57;;;;;;;7.13;6.43;;;;;;;11.02;100.00;98976.91;2595410;28;20053;-82
2022/06/11 02:23:19;;;;;;;8.98;7.47;;;;;;;10.97;100.00;98984.00;2595632;28;20060;-80
2022/06/11 02:24:40;;;;;;;9.10;7.20;;;;;;;10.96;100.00;98977.88;2595368;28;20386;-80
2022/06/11 02:26:02;;;;;;;8.27;7.40;;;;;;;10.96;100.00;98983.13;2595533;28;20049;-79
2022/06/11 02:27:23;;;;;;;9.65;8.18;;;;;;;10.93;100.00;98980.59;2595504;28;20164;-81
2022/06/11 02:28:44;;;;;;;9.07;7.93;;;;;;;10.94;100.00;98982.31;2595742;28;20091;-80
2022/06/11 02:29:59;;;;;;;10.50;8.20;;;;;;;10.97;100.00;98984.00;2595577;28;20095;-80
2022/06/11 02:31:23;;;;;;;9.35;8.35;;;;;;;10.97;100.00;98987.50;2595674;28;20480;-80
2022/06/11 02:32:38;;;;;;;8.88;7.57;;;;;;;11.00;100.00;98989.19;2595803;28;20049;-80
2022/06/11 02:33:54;;;;;;;10.65;8.45;;;;;;;11.02;100.00;98990.00;2595679;28;20497;-81
2022/06/11 02:35:13;;;;;;;10.65;7.63;;;;;;;11.00;100.00;98983.94;2595590;28;20056;-79
2022/06/11 02:36:33;;;;;;;9.15;7.25;;;;;;;11.00;100.00;98990.06;2595866;28;20115;-80
2022/06/11 02:37:48;;;;;;;12.60;7.25;;;;;;;10.99;100.00;98987.44;2595764;28;20476;-82
2022/06/11 02:39:04;;;;;;;8.82;7.25;;;;;;;10.99;100.00;98992.69;2595894;28;20111;-81
2022/06/11 02:40:25;;;;;;;9.95;7.63;;;;;;;10.85;100.00;98991.22;2595315;28;20107;-80
2022/06/11 02:41:42;;;;;;;10.52;8.18;;;;;;;10.97;100.00;98989.25;2596061;28;20065;-80
2022/06/11 02:42:57;;;;;;;13.95;8.73;;;;;;;10.77;100.00;98992.28;2595504;28;20378;-84
2022/06/11 02:44:14;;;;;;;12.48;8.55;;;;;;;10.90;100.00;98998.13;2595612;28;20057;-80
2022/06/11 02:45:29;;;;;;;9.93;8.50;;;;;;;11.07;100.00;98990.78;2595718;28;20041;-79
2022/06/11 02:46:45;;;;;;;11.35;8.98;;;;;;;11.17;100.00;98996.69;2595660;28;20085;-84
2022/06/11 02:48:01;;;;;;;9.25;7.78;;;;;;;11.30;100.00;98994.66;2595672;28;20142;-81
2022/06/11 02:49:27;;;;;;;9.23;7.90;;;;;;;11.33;100.00;98994.59;2595439;28;20053;-82
2022/06/11 02:50:46;;;;;;;13.90;7.80;;;;;;;11.24;100.00;99008.75;2596932;28;20092;-80
2022/06/11 02:52:13;;;;;;;9.32;7.72;;;;;;;11.14;100.00;99002.84;2597467;28;20045;-79
2022/06/11 02:53:29;;;;;;;8.52;7.07;;;;;;;11.02;100.00;98997.84;2597241;28;20398;-80
2022/06/11 02:54:45;;;;;;;8.52;7.43;;;;;;;10.98;100.00;99004.06;2597296;28;20148;-81
2022/06/11 02:56:00;;;;;;;8.23;7.05;;;;;;;10.90;100.00;99004.22;2597219;28;20874;-80
2022/06/11 02:57:21;;;;;;;8.27;7.05;;;;;;;10.83;100.00;99003.50;2597745;28;20064;-80
2022/06/11 02:58:36;;;;;;;8.63;7.15;;;;;;;10.79;100.00;99004.44;2596823;28;20056;-83
2022/06/11 02:59:53;;;;;;;9.75;7.30;;;;;;;10.76;100.00;98999.28;2597481;28;20135;-81
2022/06/11 03:01:10;;;;;;;8.38;7.47;;;;;;;10.69;100.00;99005.50;2597033;28;20052;-82
2022/06/11 03:02:26;;;;;;;9.15;7.80;;;;;;;10.68;100.00;99003.78;2597288;28;20049;-79
2022/06/11 03:03:41;;;;;;;9.07;7.70;;;;;;;10.66;100.00;99009.03;2597223;28;20095;-80
2022/06/11 03:04:57;;;;;;;13.23;8.00;;;;;;;10.65;100.00;99009.09;2597184;28;20124;-80
2022/06/11 03:06:13;;;;;;;12.07;8.15;;;;;;;10.64;100.00;99008.22;2597648;28;20053;-80
2022/06/11 03:07:28;;;;;;;12.75;7.78;;;;;;;10.63;100.00;99010.88;2597260;28;20052;-79
2022/06/11 03:08:44;;;;;;;10.57;7.78;;;;;;;10.60;100.00;99009.19;2596974;28;20080;-80
2022/06/11 03:09:59;;;;;;;10.30;7.70;;;;;;;10.56;100.00;99010.13;2597336;28;20045;-80
2022/06/11 03:11:16;;;;;;;9.13;7.85;;;;;;;10.54;100.00;99018.00;2597182;28;20053;-81
2022/06/11 03:12:32;;;;;;;9.60;7.43;;;;;;;10.50;100.00;99018.09;2597083;28;20095;-80
2022/06/11 03:13:48;;;;;;;8.32;6.97;;;;;;;10.50;100.00;99011.13;2597254;28;20064;-80
2022/06/11 03:15:04;;;;;;;8.07;7.28;;;;;;;10.45;100.00;99018.16;2596805;28;20053;-79
2022/06/11 03:16:20;;;;;;;8.13;7.32;;;;;;;10.45;100.00;99018.16;2597192;28;20059;-80
2022/06/11 03:17:36;;;;;;;10.40;7.70;;;;;;;10.38;100.00;99016.53;2596751;28;20049;-80
2022/06/11 03:18:51;;;;;;;7.90;7.10;;;;;;;10.38;100.00;99016.53;2597074;28;20068;-80
2022/06/11 03:20:09;;;;;;;9.38;7.45;;;;;;;10.39;100.00;99018.25;2597288;28;20073;-79
2022/06/11 03:21:25;;;;;;;10.07;7.78;;;;;;;10.41;100.00;99021.75;2596931;28;20050;-79
2022/06/11 03:22:41;;;;;;;10.40;7.70;;;;;;;10.40;100.00;99022.59;2597143;28;20187;-79
2022/06/11 03:23:57;;;;;;;9.43;7.28;;;;;;;10.38;100.00;99025.22;2594336;28;20041;-80
2022/06/11 03:25:13;;;;;;;8.73;7.65;;;;;;;10.38;100.00;99027.84;2595004;28;20046;-79
2022/06/11 03:26:29;;;;;;;9.73;7.32;;;;;;;10.40;100.00;99027.84;2596764;28;20083;-80
2022/06/11 03:27:45;;;;;;;7.97;7.18;;;;;;;10.41;100.00;99034.81;2596631;28;20136;-80
2022/06/11 03:29:00;;;;;;;8.32;7.53;;;;;;;10.40;100.00;99031.31;2596990;28;20041;-80
2022/06/11 03:30:18;;;;;;;8.55;7.25;;;;;;;10.43;100.00;99031.31;2596816;28;20083;-80
2022/06/11 03:31:33;;;;;;;7.85;6.82;;;;;;;10.45;100.00;99033.88;2597042;28;20045;-80
2022/06/11 03:32:49;;;;;;;8.13;6.45;;;;;;;10.44;100.00;99035.66;2597053;28;20638;-81
2022/06/11 03:34:04;;;;;;;7.85;6.75;;;;;;;10.46;100.00;99032.97;2597028;28;20436;-80
2022/06/11 03:35:20;;;;;;;8.10;6.85;;;;;;;10.49;100.00;99034.69;2596432;28;20128;-79
2022/06/11 03:36:36;;;;;;;8.63;7.25;;;;;;;10.48;100.00;99033.84;2596364;28;20049;-79
2022/06/11 03:37:51;;;;;;;8.73;7.70;;;;;;;10.50;100.00;99039.91;2596851;28;20587;-81
2022/06/11 03:39:07;;;;;;;7.95;7.10;;;;;;;10.57;100.00;99038.88;2596422;28;20085;-81
2022/06/11 03:40:24;;;;;;;8.32;7.20;;;;;;;10.60;100.00;99044.06;2596736;28;20550;-81
2022/06/11 03:41:53;;;;;;;7.70;6.90;;;;;;;10.66;100.00;99034.38;2595893;28;20228;-85
2022/06/11 03:43:24;;;;;;;8.13;6.50;;;;;;;10.68;100.00;99045.69;2579170;28;20467;-80
2022/06/11 03:44:40;;;;;;;9.25;6.88;;;;;;;10.71;100.00;99043.00;2596546;28;20057;-80
2022/06/11 03:45:55;;;;;;;8.55;6.65;;;;;;;10.73;100.00;99041.22;2597066;28;20115;-80
2022/06/11 03:47:11;;;;;;;8.40;6.60;;;;;;;10.73;100.00;99043.84;2596785;28;20981;-80
2022/06/11 03:48:31;;;;;;;8.40;7.13;;;;;;;10.77;100.00;99050.75;2596732;28;20092;-84
2022/06/11 03:49:46;;;;;;;8.10;7.30;;;;;;;10.80;100.00;99052.44;2596388;28;20136;-81
2022/06/11 03:51:04;;;;;;;8.95;7.55;;;;;;;10.82;100.00;99046.28;2596313;28;20080;-79
2022/06/11 03:52:20;;;;;;;8.95;7.63;;;;;;;10.86;100.00;99050.56;2596790;28;20124;-80
2022/06/11 03:53:37;;;;;;;8.90;7.60;;;;;;;10.84;100.00;99049.75;2596667;28;20054;-79
2022/06/11 03:54:55;;;;;;;11.10;7.68;;;;;;;10.79;100.00;99048.97;2596745;28;20049;-80
2022/06/11 03:56:12;;;;;;;8.75;7.85;;;;;;;10.83;100.00;99055.03;2597017;28;20607;-80
2022/06/11 03:57:28;;;;;;;10.90;7.72;;;;;;;10.85;100.00;99048.84;2596123;28;20049;-79
2022/06/11 03:58:47;;;;;;;9.68;7.65;;;;;;;10.87;100.00;99051.44;2596582;28;20089;-80
2022/06/11 04:00:06;;;;;;;8.70;7.78;;;;;;;10.87;100.00;99047.06;2596527;28;20053;-79
2022/06/11 04:01:23;;;;;;;9.23;7.25;;;;;;;10.91;100.00;99054.88;2595888;28;20056;-79
2022/06/11 04:02:39;;;;;;;9.57;7.60;;;;;;;10.90;100.00;99050.53;2595849;28;20056;-79
2022/06/11 04:03:58;;;;;;;9.18;7.57;;;;;;;10.97;100.00;99052.13;2595938;28;20499;-79
2022/06/11 04:05:14;;;;;;;8.48;7.57;;;;;;;10.98;100.00;99048.59;2596284;28;20049;-79
2022/06/11 04:06:40;;;;;;;9.52;7.43;;;;;;;10.99;100.00;99053.84;2596495;28;20049;-79
2022/06/11 04:07:55;;;;;;;9.27;7.35;;;;;;;11.03;100.00;99054.59;2596379;28;20049;-79
2022/06/11 04:09:24;;;;;;;8.77;7.28;;;;;;;11.08;100.00;99057.13;2596494;28;20495;-79
2022/06/11 04:10:41;;;;;;;9.88;7.72;;;;;;;11.03;100.00;99054.59;2596285;28;20212;-79
2022/06/11 04:11:57;;;;;;;9.30;8.25;;;;;;;11.02;100.00;99055.50;2596339;28;20053;-79
2022/06/11 04:13:13;;;;;;;9.60;7.63;;;;;;;10.97;100.00;99057.38;2596297;28;20140;-78
2022/06/11 04:14:29;;;;;;;11.13;8.10;;;;;;;11.02;100.00;99053.75;2596144;28;20041;-79
2022/06/11 04:15:46;;;;;;;12.65;8.23;;;;;;;10.99;100.00;99055.56;2595085;28;20408;-80
2022/06/11 04:17:13;;;;;;;8.82;7.70;;;;;;;11.00;100.00;99062.53;2595620;28;20045;-80
2022/06/11 04:18:38;;;;;;;9.23;7.88;;;;;;;11.04;100.00;99055.50;2595537;28;20096;-79
2022/06/11 04:19:54;;;;;;;9.27;7.93;;;;;;;11.13;100.00;99047.44;2595439;28;20559;-79
2022/06/11 04:21:12;;;;;;;9.82;8.15;;;;;;;11.20;100.00;99053.44;2595591;28;20057;-79
2022/06/11 04:22:28;;;;;;;9.07;7.70;;;;;;;11.24;100.00;99053.31;2595652;28;20412;-79
2022/06/11 04:23:47;;;;;;;11.57;8.38;;;;;;;11.18;100.00;99049.97;2595632;28;20045;-79
2022/06/11 04:25:03;;;;;;;12.23;8.02;;;;;;;11.19;100.00;99052.56;2596142;28;20044;-84
2022/06/11 04:26:23;;;;;;;10.20;7.97;;;;;;;11.13;100.00;99058.78;2595865;28;20073;-78
2022/06/11 04:27:39;;;;;;;9.18;7.82;;;;;;;11.12;100.00;99057.06;2595442;28;20087;-78
2022/06/11 04:28:55;;;;;;;12.88;7.80;;;;;;;11.11;100.00;99057.94;2594914;28;20041;-78
2022/06/11 04:30:14;;;;;;;15.07;8.43;;;;;;;11.27;100.00;99061.13;2594216;28;20050;-81
2022/06/11 04:31:31;;;;;;;12.45;8.50;;;;;;;11.26;100.00;99061.16;2594939;28;20046;-77
2022/06/11 04:32:47;;;;;;;29.60;9.20;;;;;;;11.27;100.00;99060.25;2595115;28;20049;-78
2022/06/11 04:34:03;;;;;;;19.50;8.77;;;;;;;11.19;100.00;99063.03;2595297;28;20373;-78
2022/06/11 04:35:19;;;;;;;26.73;9.65;;;;;;;11.28;100.00;99061.97;2594984;28;20045;-82
2022/06/11 04:36:36;;;;;;;31.20;10.05;;;;;;;11.28;100.00;99061.97;2595028;28;20407;-80
2022/06/11 04:37:51;;;;;;;38.78;10.55;;;;;;;11.40;100.00;99068.75;2594966;28;20049;-79
2022/06/11 04:39:08;;;;;;;34.33;9.55;;;;;;;11.27;100.00;99065.50;2594574;28;20054;-78
2022/06/11 04:40:24;;;;;;;42.78;9.98;;;;;;;11.32;100.00;99068.91;2594589;28;20050;-82
2022/06/11 04:41:40;;;;;;;59.90;10.80;;;;;;;11.52;100.00;99064.97;2595119;28;20064;-80
2022/06/11 04:42:55;;;;;;;25.20;10.35;;;;;;;11.46;100.00;99073.84;2595222;28;20382;-78
2022/06/11 04:44:11;;;;;;;45.50;9.85;;;;;;;11.41;100.00;99060.81;2595444;28;20045;-78
2022/06/11 04:45:27;;;;;;;31.77;10.68;;;;;;;11.54;100.00;99066.69;2594701;28;20049;-79
2022/06/11 04:46:43;;;;;;;14.05;9.02;;;;;;;11.52;100.00;99057.13;2595509;28;20500;-80
2022/06/11 04:47:59;;;;;;;13.15;8.73;;;;;;;11.68;100.00;99062.91;2595107;28;20096;-81
2022/06/11 04:49:15;;;;;;;10.50;8.63;;;;;;;11.65;100.00;99069.06;2595421;28;20455;-79
2022/06/11 04:50:31;;;;;;;12.10;9.00;;;;;;;11.79;100.00;99063.50;2595146;28;20041;-78
2022/06/11 04:51:47;;;;;;;11.63;8.75;;;;;;;11.75;100.00;99066.25;2595781;28;20049;-78
2022/06/11 04:53:03;;;;;;;11.00;8.68;;;;;;;11.75;100.00;99066.25;2594969;28;20053;-79
2022/06/11 04:54:19;;;;;;;10.30;8.15;;;;;;;11.76;100.00;99066.19;2595613;28;20045;-78
2022/06/11 04:55:35;;;;;;;11.68;8.30;;;;;;;11.78;100.00;99068.78;2594214;28;20046;-78
2022/06/11 04:56:51;;;;;;;10.43;8.25;;;;;;;11.79;100.00;99062.63;2590098;28;20049;-78
2022/06/11 04:58:07;;;;;;;13.82;9.73;;;;;;;11.82;100.00;99071.31;2593815;28;20053;-79
2022/06/11 04:59:23;;;;;;;10.38;9.10;;;;;;;11.89;100.00;99069.41;2595247;28;20126;-80
2022/06/11 05:00:38;;;;;;;11.57;9.65;;;;;;;11.94;100.00;99071.91;2594430;28;20048;-79
2022/06/11 05:01:54;;;;;;;14.32;10.50;;;;;;;11.99;100.00;99065.66;2595207;28;20131;-78
2022/06/11 05:03:10;;;;;;;12.50;10.88;;;;;;;11.96;100.00;99065.72;2594523;28;20253;-79
2022/06/11 05:04:26;;;;;;;14.20;11.65;;;;;;;11.99;100.00;99068.28;2594716;28;20057;-78
2022/06/11 05:05:41;;;;;;;13.77;11.13;;;;;;;12.10;100.00;99065.44;2593679;28;20156;-78
2022/06/11 05:06:57;;;;;;;13.38;10.70;;;;;;;12.02;100.00;99063.91;2594094;28;20075;-80
2022/06/11 05:08:14;;;;;;;12.32;10.35;;;;;;;12.07;100.00;99062.88;2595526;28;20060;-82
2022/06/11 05:09:30;;;;;;;13.32;11.27;;;;;;;12.14;100.00;99068.84;2595117;28;20092;-78
2022/06/11 05:10:46;;;;;;;13.45;11.05;;;;;;;12.25;100.00;99071.22;2595199;28;20489;-80
2022/06/11 05:12:02;;;;;;;18.17;11.80;;;;;;;12.34;100.00;99067.50;2593286;28;20559;-78
2022/06/11 05:13:18;;;;;;;14.40;11.32;;;;;;;12.31;100.00;99075.47;2592508;28;20134;-78
2022/06/11 05:14:33;;;;;;;13.10;10.63;;;;;;;12.36;100.00;99070.94;2595097;28;20045;-79
2022/06/11 05:15:52;;;;;;;13.35;10.43;;;;;;;12.48;100.00;99073.25;2594801;28;20045;-79
2022/06/11 05:17:08;;;;;;;12.60;10.57;;;;;;;12.57;100.00;99072.16;2594674;28;20070;-79
2022/06/11 05:18:26;;;;;;;11.63;9.63;;;;;;;12.59;100.00;99083.47;2594372;28;20084;-79
2022/06/11 05:19:42;;;;;;;10.57;9.48;;;;;;;12.56;100.00;99081.78;2595020;28;20041;-78
2022/06/11 05:20:58;;;;;;;11.35;9.57;;;;;;;12.57;100.00;99083.53;2594776;28;20519;-77
2022/06/11 05:22:13;;;;;;;9.98;8.98;;;;;;;12.68;100.00;99075.38;2595468;28;20772;-80
2022/06/11 05:23:29;;;;;;;10.45;9.02;;;;;;;12.68;100.00;99077.13;2593548;28;20458;-79
2022/06/11 05:24:45;;;;;;;12.40;8.43;;;;;;;12.76;100.00;99077.78;2594620;28;20079;-81
2022/06/11 05:26:00;;;;;;;9.73;8.65;;;;;;;12.84;100.00;99077.59;2594766;28;20080;-78
2022/06/11 05:27:20;;;;;;;11.40;9.20;;;;;;;13.02;100.00;99083.22;2595079;28;20053;-79
2022/06/11 05:28:36;;;;;;;11.75;9.52;;;;;;;12.92;100.00;99086.13;2594432;28;20092;-81
2022/06/11 05:29:56;;;;;;;9.80;8.52;;;;;;;12.94;100.00;99080.81;2594223;28;20045;-78
2022/06/11 05:31:12;;;;;;;12.05;8.57;;;;;;;12.98;100.00;99078.06;2594415;28;20140;-80
2022/06/11 05:32:30;;;;;;;9.55;8.40;;;;;;;12.99;100.00;99086.78;2594196;28;20045;-80
2022/06/11 05:33:46;;;;;;;9.73;8.13;;;;;;;13.03;100.00;99085.81;2593989;28;20092;-79
2022/06/11 05:35:06;;;;;;;9.02;8.13;;;;;;;13.06;100.00;99075.22;2594500;28;20049;-78
2022/06/11 05:36:22;;;;;;;9.25;8.35;;;;;;;13.22;100.00;99080.03;2593647;28;20052;-78
2022/06/11 05:37:38;;;;;;;9.15;8.23;;;;;;;13.12;100.00;99074.19;2594715;28;20468;-78
2022/06/11 05:38:53;;;;;;;9.82;8.82;;;;;;;13.17;100.00;99077.53;2594737;28;20065;-78
2022/06/11 05:40:11;;;;;;;8.63;7.82;;;;;;;13.33;100.00;99077.97;2594386;28;20045;-79
2022/06/11 05:41:27;;;;;;;9.20;8.27;;;;;;;13.39;100.00;99077.78;2595152;28;20045;-78
2022/06/11 05:42:47;;;;;;;8.77;7.88;;;;;;;13.48;100.00;99081.97;2594845;28;20136;-78
2022/06/11 05:44:04;;;;;;;11.02;7.80;;;;;;;13.44;100.00;99079.47;2594676;28;20112;-78
2022/06/11 05:45:24;;;;;;;9.90;8.90;;;;;;;13.59;100.00;99079.00;2594909;28;20042;-78
2022/06/11 05:46:40;;;;;;;9.65;8.60;;;;;;;13.63;100.00;99085.88;2594472;28;20476;-79
2022/06/11 05:47:57;;;;;;;9.70;8.30;;;;;;;13.77;100.00;99074.97;2594699;28;20244;-79
2022/06/11 05:49:17;;;;;;;9.68;8.68;;;;;;;13.72;100.00;99082.13;2594104;28;20050;-79
2022/06/11 05:50:37;;;;;;;9.05;8.15;;;;;;;13.81;100.00;99070.44;2594122;28;20502;-78
2022/06/11 05:51:56;;;;;;;9.00;8.07;;;;;;;13.95;100.00;99070.88;2593263;28;20037;-78
2022/06/11 05:53:15;;;;;;;11.75;9.02;;;;;;;14.13;100.00;99071.22;2595061;28;20057;-78
2022/06/11 05:54:34;;;;;;;9.55;8.02;;;;;;;14.11;100.00;99065.13;2594655;28;20080;-78
2022/06/11 05:55:51;;;;;;;8.50;7.70;;;;;;;14.10;100.00;99069.53;2594232;28;20799;-79
2022/06/11 05:57:09;;;;;;;10.27;7.43;;;;;;;14.16;100.00;99068.47;2594404;28;20052;-81
2022/06/11 05:58:31;;;;;;;8.88;7.72;;;;;;;14.18;100.00;99066.63;2595719;28;20191;-84
2022/06/11 05:59:52;;;;;;;8.68;7.80;;;;;;;14.41;100.00;99067.66;2595777;28;20099;-80
2022/06/11 06:01:10;;;;;;;8.82;7.93;;;;;;;14.51;100.00;99065.56;2595839;28;20111;-81
2022/06/11 06:02:27;;;;;;;9.88;7.80;;;;;;;14.60;100.00;99065.25;2595624;28;20080;-81
2022/06/11 06:03:42;;;;;;;8.90;8.00;;;;;;;14.62;100.00;99068.69;2595642;28;20114;-80
2022/06/11 06:04:58;;;;;;;8.52;7.72;;;;;;;14.69;100.00;99064.91;2595620;28;20078;-81
2022/06/11 06:06:13;;;;;;;8.88;7.50;;;;;;;14.66;100.00;99062.41;2595760;28;20107;-80
2022/06/11 06:07:29;;;;;;;8.75;7.63;;;;;;;14.76;100.00;99060.31;2595800;28;20060;-80
2022/06/11 06:08:44;;;;;;;8.68;7.45;;;;;;;14.84;100.00;99057.41;2595770;28;20049;-81
2022/06/11 06:10:00;;;;;;;10.95;8.35;;;;;;;14.94;100.00;99066.72;2595751;28;20076;-80